Time;durP1;ratioP1;P1;durP2;ratioP2;P2;SDS_P1;SDS_P2;PMS_P1;PMS_P2;Temp;Humidity;BMP_temperature;BMP_pressure;BME280_temperature;BME280_humidity;BME280_pressure;Samples;Min_cycle;Max_cycle;Signal;HPM_P1;HPM_P2
2021/08/07 00:01:56;;;;;;;3.43;2.80;;;15.60;99.90;;;;;;5015376;28;20643;-93
2021/08/07 00:04:23;;;;;;;2.90;1.93;;;15.60;99.90;;;;;;5010282;28;20627;-92
2021/08/07 00:06:49;;;;;;;2.43;1.90;;;15.50;99.90;;;;;;5017437;28;21201;-94
2021/08/07 00:09:18;;;;;;;3.20;2.07;;;15.50;99.90;;;;;;5013163;28;20998;-93
2021/08/07 00:11:44;;;;;;;3.27;2.50;;;15.50;99.90;;;;;;5013929;28;20640;-93
2021/08/07 00:14:11;;;;;;;5.87;2.20;;;15.40;99.90;;;;;;5017625;28;20627;-93
2021/08/07 00:16:38;;;;;;;3.30;2.23;;;15.40;99.90;;;;;;5014526;28;20608;-93
2021/08/07 00:19:05;;;;;;;4.87;2.00;;;15.40;99.90;;;;;;5012983;28;21774;-92
2021/08/07 00:21:32;;;;;;;2.40;2.17;;;15.40;99.90;;;;;;5015117;28;20668;-93
2021/08/07 00:24:00;;;;;;;3.03;2.17;;;15.40;99.90;;;;;;5012555;28;20627;-93
2021/08/07 00:26:28;;;;;;;2.80;2.43;;;15.40;99.90;;;;;;5014755;28;20633;-93
2021/08/07 00:28:54;;;;;;;4.47;2.50;;;15.40;99.90;;;;;;5013136;28;20632;-92
2021/08/07 00:31:21;;;;;;;6.03;2.67;;;15.40;99.90;;;;;;5015918;28;20673;-93
2021/08/07 00:33:48;;;;;;;6.60;2.70;;;15.50;99.90;;;;;;5013894;28;20639;-94
2021/08/07 00:36:15;;;;;;;4.40;2.10;;;15.50;99.90;;;;;;5008074;28;20646;-92
2021/08/07 00:38:42;;;;;;;2.83;2.13;;;15.50;99.90;;;;;;5012728;28;21121;-94
2021/08/07 00:41:08;;;;;;;2.90;2.43;;;15.50;99.90;;;;;;5016189;28;20658;-93
2021/08/07 00:43:37;;;;;;;5.10;2.23;;;15.50;99.90;;;;;;5018221;28;20618;-93
2021/08/07 00:46:03;;;;;;;2.83;2.10;;;15.60;99.90;;;;;;5017549;28;20632;-93
2021/08/07 00:48:30;;;;;;;3.20;2.33;;;15.60;99.90;;;;;;5020408;28;21157;-93
2021/08/07 00:50:58;;;;;;;5.20;2.20;;;15.60;99.90;;;;;;5018536;28;20670;-93
2021/08/07 00:53:26;;;;;;;2.43;2.23;;;15.60;99.90;;;;;;5014151;28;20634;-93
2021/08/07 00:55:53;;;;;;;3.70;2.43;;;15.60;99.90;;;;;;5017321;28;20632;-93
2021/08/07 00:58:20;;;;;;;3.00;2.37;;;15.70;99.90;;;;;;5013403;28;20627;-94
2021/08/07 01:00:48;;;;;;;2.87;2.30;;;15.70;99.90;;;;;;5017814;28;20662;-93
2021/08/07 01:03:23;;;;;;;4.60;2.80;;;15.70;99.90;;;;;;5017737;28;20639;-93
2021/08/07 01:05:56;;;;;;;2.70;1.80;;;15.70;99.90;;;;;;5012751;28;20629;-93
2021/08/07 01:08:39;;;;;;;3.27;2.30;;;15.70;99.90;;;;;;5015975;28;20658;-93
2021/08/07 01:11:15;;;;;;;3.40;2.00;;;15.70;99.90;;;;;;5013339;28;20670;-92
2021/08/07 01:13:45;;;;;;;2.90;2.53;;;15.80;99.90;;;;;;5012681;28;20695;-93
2021/08/07 01:16:19;;;;;;;2.60;2.40;;;15.70;99.90;;;;;;5008146;28;20634;-92
2021/08/07 01:18:48;;;;;;;3.43;2.40;;;15.80;99.90;;;;;;5018090;28;20619;-93
2021/08/07 01:21:18;;;;;;;5.53;2.70;;;15.80;99.90;;;;;;5014491;28;20654;-93
2021/08/07 01:23:51;;;;;;;3.03;2.50;;;15.80;99.90;;;;;;5016862;28;20626;-93
2021/08/07 01:26:27;;;;;;;2.47;2.27;;;15.70;99.90;;;;;;5017223;28;20658;-93
2021/08/07 01:28:58;;;;;;;4.90;2.37;;;15.70;99.90;;;;;;5017620;28;20745;-93
2021/08/07 01:31:25;;;;;;;2.50;2.30;;;15.80;99.90;;;;;;5016422;28;20675;-92
2021/08/07 01:33:53;;;;;;;2.70;2.30;;;15.70;99.90;;;;;;5018818;28;20995;-92
2021/08/07 01:36:20;;;;;;;3.90;2.33;;;15.70;99.90;;;;;;4997165;28;20709;-93
2021/08/07 01:38:47;;;;;;;4.27;2.23;;;15.80;99.90;;;;;;5014572;28;20650;-94
2021/08/07 01:41:16;;;;;;;3.20;2.90;;;15.80;99.90;;;;;;5017328;28;20660;-93
2021/08/07 01:43:43;;;;;;;3.67;2.10;;;15.70;99.90;;;;;;5013780;28;20626;-93
2021/08/07 01:46:14;;;;;;;4.23;2.10;;;15.70;99.90;;;;;;5018194;28;20638;-93
2021/08/07 01:48:48;;;;;;;2.93;1.90;;;15.80;99.90;;;;;;5009181;28;20627;-92
2021/08/07 01:51:19;;;;;;;5.33;2.63;;;15.80;99.90;;;;;;5017617;28;20685;-93
2021/08/07 01:53:50;;;;;;;3.20;2.30;;;15.70;99.90;;;;;;5014983;28;20615;-93
2021/08/07 01:56:21;;;;;;;2.60;2.03;;;15.80;99.90;;;;;;5012157;28;20617;-94
2021/08/07 01:58:52;;;;;;;2.23;1.70;;;15.80;99.90;;;;;;5014964;28;20690;-93
2021/08/07 02:01:24;;;;;;;6.57;2.10;;;15.80;99.90;;;;;;5014201;28;20640;-93
2021/08/07 02:03:52;;;;;;;3.80;2.30;;;15.70;99.90;;;;;;5016125;28;20635;-94
2021/08/07 02:06:19;;;;;;;7.03;2.67;;;15.70;99.90;;;;;;5015583;28;20623;-93
2021/08/07 02:08:46;;;;;;;4.00;2.47;;;15.80;99.90;;;;;;5015355;28;20631;-94
2021/08/07 02:11:13;;;;;;;4.50;2.40;;;15.80;99.90;;;;;;5011945;28;20914;-93
2021/08/07 02:13:41;;;;;;;2.97;2.40;;;15.80;99.90;;;;;;5016390;28;20643;-94
2021/08/07 02:16:09;;;;;;;4.77;2.37;;;15.80;99.90;;;;;;5018081;28;20635;-94
2021/08/07 02:18:40;;;;;;;2.57;2.30;;;15.80;99.90;;;;;;5009014;28;20627;-94
2021/08/07 02:21:08;;;;;;;4.50;1.90;;;15.80;99.90;;;;;;5010610;28;20651;-94
2021/08/07 02:23:35;;;;;;;2.80;2.17;;;15.80;99.90;;;;;;4998527;28;20623;-94
2021/08/07 02:26:03;;;;;;;5.40;2.40;;;15.80;99.90;;;;;;5016625;28;20634;-92
2021/08/07 02:28:37;;;;;;;2.63;2.23;;;15.80;99.90;;;;;;5016985;28;20604;-94
2021/08/07 02:31:05;;;;;;;2.53;2.33;;;15.80;99.90;;;;;;5012560;28;20695;-94
2021/08/07 02:33:35;;;;;;;5.30;2.20;;;15.80;99.90;;;;;;5015151;28;20643;-93
2021/08/07 02:36:10;;;;;;;2.70;2.47;;;15.80;99.90;;;;;;4999098;28;21013;-93
2021/08/07 02:38:37;;;;;;;2.60;2.40;;;15.80;99.90;;;;;;5013143;28;20643;-92
2021/08/07 02:41:05;;;;;;;5.43;2.23;;;15.80;99.90;;;;;;5010993;28;20664;-92
2021/08/07 02:43:33;;;;;;;3.03;2.73;;;15.90;99.90;;;;;;5015971;28;20639;-92
2021/08/07 02:46:01;;;;;;;10.43;2.30;;;15.80;99.90;;;;;;5014554;28;20632;-92
2021/08/07 02:48:28;;;;;;;3.30;2.30;;;15.90;99.90;;;;;;5013947;28;21207;-93
2021/08/07 02:50:56;;;;;;;2.43;2.23;;;15.90;99.90;;;;;;5015353;28;21031;-92
2021/08/07 02:53:25;;;;;;;8.00;2.50;;;15.90;99.90;;;;;;5006997;28;20636;-92
2021/08/07 02:55:55;;;;;;;4.13;2.60;;;15.90;99.90;;;;;;5015994;28;20642;-92
2021/08/07 02:58:23;;;;;;;3.13;2.00;;;15.80;99.90;;;;;;5010574;28;21196;-93
2021/08/07 03:00:50;;;;;;;2.87;2.00;;;15.90;99.90;;;;;;5013667;28;20652;-93
2021/08/07 03:03:18;;;;;;;2.60;2.40;;;15.90;99.90;;;;;;5016535;28;20626;-92
2021/08/07 03:05:44;;;;;;;4.50;2.60;;;15.80;99.90;;;;;;5013622;28;20643;-93
2021/08/07 03:08:12;;;;;;;3.50;2.30;;;15.80;99.90;;;;;;5013446;28;20631;-93
2021/08/07 03:10:40;;;;;;;5.20;2.80;;;15.80;99.90;;;;;;5011770;28;21251;-94
2021/08/07 03:13:08;;;;;;;2.17;1.57;;;15.70;99.90;;;;;;5010849;28;20639;-92
2021/08/07 03:15:37;;;;;;;3.33;2.17;;;15.70;99.90;;;;;;5016074;28;20645;-94
2021/08/07 03:18:04;;;;;;;4.87;2.30;;;15.70;99.90;;;;;;5013530;28;20638;-94
2021/08/07 03:20:31;;;;;;;3.93;2.63;;;15.60;99.90;;;;;;5015671;28;20708;-93
2021/08/07 03:22:59;;;;;;;2.53;1.90;;;15.50;99.90;;;;;;5006895;28;20607;-93
2021/08/07 03:25:27;;;;;;;5.00;2.70;;;15.50;99.90;;;;;;5017933;28;20624;-93
2021/08/07 03:27:55;;;;;;;4.43;2.70;;;15.40;99.90;;;;;;5010117;28;20665;-93
2021/08/07 03:30:23;;;;;;;4.20;2.30;;;15.40;99.90;;;;;;4998271;28;20679;-93
2021/08/07 03:32:50;;;;;;;3.07;2.27;;;15.30;99.90;;;;;;5016599;28;20643;-93
2021/08/07 03:35:17;;;;;;;4.33;2.30;;;15.30;99.90;;;;;;5016922;28;20632;-93
2021/08/07 03:37:44;;;;;;;5.93;2.33;;;15.20;99.90;;;;;;5018048;28;20640;-92
2021/08/07 03:40:12;;;;;;;4.97;2.83;;;15.20;99.90;;;;;;5014856;28;20660;-93
2021/08/07 03:42:40;;;;;;;3.27;1.90;;;15.20;99.90;;;;;;5014629;28;20619;-93
2021/08/07 03:45:11;;;;;;;3.27;2.37;;;15.10;99.90;;;;;;5017692;28;20639;-93
2021/08/07 03:47:49;;;;;;;2.70;2.40;;;15.10;99.90;;;;;;5015288;28;20639;-94
2021/08/07 03:50:16;;;;;;;4.87;2.40;;;15.00;99.90;;;;;;5016401;28;20674;-93
2021/08/07 03:52:43;;;;;;;4.70;2.10;;;15.00;99.90;;;;;;4997549;28;20659;-93
2021/08/07 03:55:11;;;;;;;2.77;2.43;;;14.90;99.90;;;;;;5017472;28;20632;-94
2021/08/07 03:57:48;;;;;;;2.30;2.10;;;14.90;99.90;;;;;;5013993;28;20632;-93
2021/08/07 04:00:17;;;;;;;5.97;2.30;;;14.90;99.90;;;;;;5012934;28;20991;-94
2021/08/07 04:02:44;;;;;;;4.10;2.70;;;14.90;99.90;;;;;;5017528;28;20636;-93
2021/08/07 04:05:11;;;;;;;4.23;2.40;;;14.80;99.90;;;;;;5016059;28;20639;-93
2021/08/07 04:07:38;;;;;;;2.90;2.20;;;14.80;99.90;;;;;;5008627;28;20655;-93
2021/08/07 04:10:06;;;;;;;2.53;2.33;;;14.80;99.90;;;;;;5023580;28;21031;-92
2021/08/07 04:12:33;;;;;;;3.47;2.07;;;14.80;99.90;;;;;;5018687;28;20626;-94
2021/08/07 04:15:00;;;;;;;5.07;2.40;;;14.80;99.90;;;;;;5015112;28;20639;-93
2021/08/07 04:17:28;;;;;;;8.33;2.20;;;14.80;99.90;;;;;;5018184;28;20634;-94
2021/08/07 04:19:55;;;;;;;4.60;2.40;;;14.70;99.90;;;;;;5013985;28;20655;-93
2021/08/07 04:22:21;;;;;;;3.23;2.40;;;14.80;99.90;;;;;;5017946;28;20615;-93
2021/08/07 04:24:51;;;;;;;5.77;2.80;;;14.70;99.90;;;;;;5012044;28;20646;-94
2021/08/07 04:27:20;;;;;;;3.57;2.07;;;14.70;99.90;;;;;;5009190;28;20644;-94
2021/08/07 04:29:47;;;;;;;3.30;2.63;;;14.70;99.90;;;;;;5019226;28;20667;-93
2021/08/07 04:32:13;;;;;;;4.80;2.90;;;14.80;99.90;;;;;;5011603;28;20662;-93
2021/08/07 04:34:42;;;;;;;3.00;2.73;;;14.80;99.90;;;;;;5017942;28;20636;-94
2021/08/07 04:37:08;;;;;;;3.53;2.33;;;14.80;99.90;;;;;;5013616;28;20616;-93
2021/08/07 04:39:35;;;;;;;2.70;2.50;;;14.90;99.90;;;;;;4998199;28;20655;-93
2021/08/07 04:42:03;;;;;;;3.63;2.40;;;14.90;99.90;;;;;;5019150;28;20715;-93
2021/08/07 04:44:29;;;;;;;4.07;2.40;;;15.00;99.90;;;;;;5013782;28;20641;-93
2021/08/07 04:46:57;;;;;;;3.60;2.70;;;15.00;99.90;;;;;;5013223;28;20635;-93
2021/08/07 04:49:23;;;;;;;4.17;3.20;;;15.00;99.90;;;;;;5009904;28;20647;-93
2021/08/07 04:51:52;;;;;;;3.50;2.40;;;15.10;99.90;;;;;;5017605;28;21216;-93
2021/08/07 04:54:19;;;;;;;2.97;2.67;;;15.10;99.90;;;;;;5016838;28;20639;-93
2021/08/07 04:56:45;;;;;;;2.60;2.30;;;15.10;99.90;;;;;;5014855;28;20639;-93
2021/08/07 04:59:12;;;;;;;4.20;2.60;;;15.10;99.90;;;;;;5013841;28;21397;-95
2021/08/07 05:01:39;;;;;;;3.33;2.63;;;15.20;99.90;;;;;;5014125;28;20635;-92
2021/08/07 05:04:06;;;;;;;3.27;2.77;;;15.20;99.90;;;;;;4999370;28;20643;-92
2021/08/07 05:06:33;;;;;;;5.43;2.80;;;15.20;99.90;;;;;;5018149;28;21430;-93
2021/08/07 05:09:01;;;;;;;3.40;2.60;;;15.30;99.90;;;;;;5012368;28;20620;-93
2021/08/07 05:11:28;;;;;;;5.20;3.40;;;15.40;99.90;;;;;;5014641;28;20679;-93
2021/08/07 05:13:54;;;;;;;2.60;2.10;;;15.40;99.90;;;;;;5013972;28;20642;-93
2021/08/07 05:16:21;;;;;;;5.27;2.60;;;15.50;99.90;;;;;;5019675;28;20643;-93
2021/08/07 05:18:48;;;;;;;6.00;2.90;;;15.60;99.90;;;;;;5017378;28;20648;-94
2021/08/07 05:21:16;;;;;;;4.17;2.30;;;15.70;99.90;;;;;;5014603;28;20647;-93
2021/08/07 05:23:43;;;;;;;3.80;2.73;;;15.70;99.90;;;;;;5014858;28;21349;-94
2021/08/07 05:26:12;;;;;;;4.40;2.90;;;15.80;99.90;;;;;;5011463;28;20644;-93
2021/08/07 05:28:39;;;;;;;3.00;2.60;;;15.80;99.90;;;;;;5007209;28;21279;-92
2021/08/07 05:31:06;;;;;;;5.53;3.53;;;15.90;99.90;;;;;;4995703;28;20705;-93
2021/08/07 05:33:33;;;;;;;2.77;2.27;;;15.90;99.90;;;;;;5017979;28;20627;-92
2021/08/07 05:36:00;;;;;;;4.10;2.60;;;16.00;99.90;;;;;;5017044;28;20634;-93
2021/08/07 05:38:27;;;;;;;3.57;2.70;;;16.10;99.90;;;;;;5018771;28;20604;-93
2021/08/07 05:40:53;;;;;;;3.00;2.67;;;16.10;99.90;;;;;;5017256;28;20662;-94
2021/08/07 05:43:22;;;;;;;3.63;2.67;;;16.20;99.90;;;;;;5000667;28;20619;-94
2021/08/07 05:45:48;;;;;;;3.43;2.60;;;16.20;99.90;;;;;;5011440;28;20648;-93
2021/08/07 05:48:18;;;;;;;4.30;2.30;;;16.30;99.90;;;;;;5010693;28;20722;-94
2021/08/07 05:50:45;;;;;;;5.90;2.27;;;16.30;99.90;;;;;;5012499;28;20666;-93
2021/08/07 05:53:11;;;;;;;5.57;2.80;;;16.40;99.90;;;;;;5010524;28;20693;-93
2021/08/07 05:55:40;;;;;;;2.93;2.60;;;16.50;99.90;;;;;;5010066;28;20642;-94
2021/08/07 05:58:08;;;;;;;2.90;2.40;;;16.70;99.90;;;;;;5008332;28;21358;-95
2021/08/07 06:00:36;;;;;;;4.50;2.40;;;16.60;99.90;;;;;;4980817;28;20642;-95
2021/08/07 06:03:03;;;;;;;4.97;2.70;;;16.80;99.90;;;;;;4991001;28;20656;-94
2021/08/07 06:05:30;;;;;;;2.80;2.37;;;16.90;99.90;;;;;;4989864;28;20593;-93
2021/08/07 06:08:06;;;;;;;3.30;2.37;;;17.10;99.90;;;;;;4986382;28;20751;-93
2021/08/07 06:10:40;;;;;;;3.93;1.90;;;17.10;99.90;;;;;;4990271;28;20631;-94
2021/08/07 06:13:10;;;;;;;2.30;2.10;;;17.30;99.90;;;;;;4995113;28;20767;-94
2021/08/07 06:15:38;;;;;;;2.53;1.93;;;17.40;99.90;;;;;;4992831;28;20657;-95
2021/08/07 06:18:08;;;;;;;2.07;1.87;;;17.50;99.90;;;;;;4998881;28;20661;-95
2021/08/07 06:20:36;;;;;;;6.80;2.00;;;17.50;99.90;;;;;;4996700;28;20647;-93
2021/08/07 06:23:03;;;;;;;4.03;2.30;;;17.60;99.90;;;;;;4990067;28;20657;-93
2021/08/07 06:25:31;;;;;;;3.10;2.50;;;17.60;99.90;;;;;;4991686;28;20648;-94
2021/08/07 06:27:59;;;;;;;4.00;2.23;;;17.70;99.90;;;;;;4995592;28;20683;-94
2021/08/07 06:30:28;;;;;;;2.80;1.87;;;17.80;99.90;;;;;;4993163;28;20660;-95
2021/08/07 06:32:56;;;;;;;4.77;2.00;;;17.90;99.90;;;;;;5001619;28;20661;-92
2021/08/07 06:35:24;;;;;;;2.43;1.87;;;17.90;99.90;;;;;;4989267;28;21111;-92
2021/08/07 06:37:51;;;;;;;4.63;1.97;;;18.00;99.90;;;;;;4993163;28;20640;-93
2021/08/07 06:40:19;;;;;;;2.27;1.73;;;18.10;99.90;;;;;;4989865;28;20671;-92
2021/08/07 06:42:47;;;;;;;3.17;1.77;;;18.20;99.90;;;;;;4992424;28;20723;-92
2021/08/07 06:45:14;;;;;;;2.67;1.50;;;18.30;99.90;;;;;;4992470;28;20661;-92
2021/08/07 06:47:41;;;;;;;4.23;1.70;;;18.50;99.90;;;;;;4991774;28;20639;-92
2021/08/07 06:50:10;;;;;;;3.13;2.20;;;18.70;99.90;;;;;;4988630;28;20629;-93
2021/08/07 06:52:38;;;;;;;3.50;1.80;;;18.80;99.90;;;;;;4985713;28;20766;-93
2021/08/07 06:55:12;;;;;;;1.83;1.70;;;18.90;99.90;;;;;;4982670;28;20672;-94
2021/08/07 06:57:42;;;;;;;3.13;2.13;;;18.90;99.90;;;;;;4982858;28;21220;-96
2021/08/07 07:00:15;;;;;;;2.30;1.60;;;19.00;99.90;;;;;;4984087;28;20669;-96
2021/08/07 07:13:21;;;;;;;4.03;1.47;;;19.30;99.90;;;;;;4990416;28;20680;-96
2021/08/07 07:35:12;;;;;;;3.90;2.00;;;20.60;99.90;;;;;;4999440;28;20656;-96
2021/08/07 07:37:43;;;;;;;2.63;2.00;;;20.60;99.90;;;;;;4993485;28;20667;-96
2021/08/07 07:40:21;;;;;;;3.10;1.90;;;20.50;99.90;;;;;;4999561;28;20629;-96
2021/08/07 07:42:58;;;;;;;2.90;1.90;;;20.50;99.90;;;;;;5000660;28;20613;-96
2021/08/07 07:46:30;;;;;;;1.47;1.30;;;20.50;99.90;;;;;;5024893;23;21302;-96
2021/08/07 08:24:45;;;;;;;4.30;1.97;;;22.40;99.90;;;;;;4920338;29;20679;-96
2021/08/07 08:46:47;;;;;;;5.73;1.83;;;22.80;99.90;;;;;;4940537;29;21065;-96
2021/08/07 08:59:54;;;;;;;1.47;1.33;;;23.00;99.90;;;;;;4950392;29;20643;-96
2021/08/07 09:02:39;;;;;;;2.10;1.63;;;23.00;99.90;;;;;;4952056;29;20635;-96
2021/08/07 09:05:13;;;;;;;2.80;1.97;;;22.90;99.90;;;;;;4947411;29;20650;-96
2021/08/07 09:07:43;;;;;;;2.00;1.30;;;22.90;99.90;;;;;;4943651;29;20677;-96
2021/08/07 09:10:17;;;;;;;2.13;1.50;;;22.80;99.90;;;;;;4941277;29;20636;-96
2021/08/07 09:12:51;;;;;;;2.60;1.47;;;22.80;99.90;;;;;;4946875;29;20659;-96
2021/08/07 09:15:39;;;;;;;2.13;1.57;;;22.80;99.90;;;;;;4947554;29;20651;-96
2021/08/07 09:18:26;;;;;;;2.23;1.70;;;22.90;99.90;;;;;;4942903;29;21534;-96
2021/08/07 09:21:01;;;;;;;1.70;1.60;;;22.90;99.90;;;;;;4943299;29;20666;-96
2021/08/07 09:23:40;;;;;;;2.80;1.30;;;22.80;99.90;;;;;;4956856;29;20639;-96
2021/08/07 09:26:25;;;;;;;3.03;1.70;;;22.90;99.90;;;;;;4942472;29;20660;-96
2021/08/07 09:29:05;;;;;;;1.80;1.43;;;23.00;99.90;;;;;;4950635;29;20659;-96
2021/08/07 09:32:01;;;;;;;3.27;1.80;;;23.00;99.90;;;;;;4949221;29;20659;-96
2021/08/07 09:34:36;;;;;;;4.63;1.87;;;23.10;99.90;;;;;;4953996;29;20700;-96
2021/08/07 09:42:57;;;;;;;2.63;1.63;;;23.10;99.90;;;;;;4941577;29;20635;-96
2021/08/07 09:45:27;;;;;;;4.60;1.50;;;23.10;99.90;;;;;;4943642;29;20628;-96
2021/08/07 09:48:03;;;;;;;9.43;2.30;;;23.10;99.90;;;;;;4957877;29;20655;-96
2021/08/07 09:53:45;;;;;;;3.07;1.40;;;23.00;99.90;;;;;;4936713;29;20647;-96
2021/08/07 09:59:48;;;;;;;4.03;1.83;;;22.90;99.90;;;;;;4938554;29;20676;-96
2021/08/07 10:02:30;;;;;;;2.10;1.30;;;22.90;99.90;;;;;;4928338;29;21012;-96
2021/08/07 10:05:03;;;;;;;2.10;1.67;;;22.80;99.90;;;;;;4928596;29;20661;-96
2021/08/07 10:07:36;;;;;;;4.07;1.60;;;22.70;99.90;;;;;;4931597;29;20675;-96
2021/08/07 10:10:25;;;;;;;3.00;1.40;;;22.60;99.90;;;;;;4935319;29;20637;-96
2021/08/07 10:18:40;;;;;;;4.50;1.87;;;22.00;99.90;;;;;;5028099;23;20666;-96
2021/08/07 10:21:34;;;;;;;7.83;2.83;;;21.70;99.90;;;;;;4961625;28;20639;-96
2021/08/07 10:29:35;;;;;;;2.90;1.93;;;21.20;99.90;;;;;;5000484;23;20710;-96
2021/08/07 11:04:12;;;;;;;4.60;2.40;;;20.30;99.90;;;;;;4960024;29;20593;-96
2021/08/07 11:28:34;;;;;;;3.20;2.20;;;20.00;99.90;;;;;;4956291;29;20703;-96
2021/08/07 11:33:37;;;;;;;2.80;2.30;;;19.80;99.90;;;;;;4972931;28;20665;-95
2021/08/07 11:36:13;;;;;;;4.13;2.00;;;19.80;99.90;;;;;;4974031;29;20698;-96
2021/08/07 11:39:01;;;;;;;5.37;2.73;;;19.70;99.90;;;;;;4959949;29;20669;-96
2021/08/07 11:41:36;;;;;;;3.23;2.63;;;19.70;99.90;;;;;;4974467;29;20682;-96
2021/08/07 11:44:18;;;;;;;5.80;2.50;;;19.60;99.90;;;;;;4952114;29;20629;-96
2021/08/07 11:46:45;;;;;;;2.40;2.10;;;19.50;99.90;;;;;;4976202;29;20654;-96
2021/08/07 11:49:18;;;;;;;7.67;2.87;;;19.50;99.90;;;;;;4976810;28;20714;-96
2021/08/07 11:51:46;;;;;;;2.70;2.20;;;19.50;99.90;;;;;;4972952;28;20653;-96
2021/08/07 11:54:23;;;;;;;2.87;2.13;;;19.50;99.90;;;;;;4961863;29;20723;-96
2021/08/07 12:04:03;;;;;;;3.93;2.10;;;19.60;99.90;;;;;;4981603;29;20658;-96
2021/08/07 12:06:55;;;;;;;3.10;2.53;;;19.60;99.90;;;;;;4980972;29;20697;-96
2021/08/07 12:10:14;;;;;;;3.87;2.40;;;19.70;99.90;;;;;;5028782;23;20679;-96
2021/08/07 12:12:45;;;;;;;4.93;2.60;;;19.70;99.90;;;;;;5019571;28;20680;-96
2021/08/07 12:15:55;;;;;;;8.13;2.47;;;19.80;99.90;;;;;;4985180;23;20671;-96
2021/08/07 12:29:45;;;;;;;2.40;1.97;;;19.90;99.90;;;;;;4979675;26;20660;-95
2021/08/07 12:32:18;;;;;;;3.10;2.60;;;20.00;99.90;;;;;;4979768;28;20685;-96
2021/08/07 12:34:46;;;;;;;3.23;2.57;;;20.00;99.90;;;;;;4963143;28;20622;-96
2021/08/07 12:37:17;;;;;;;3.20;2.50;;;20.00;99.90;;;;;;4979166;28;20638;-96
2021/08/07 12:53:11;;;;;;;3.03;2.30;;;20.10;99.90;;;;;;5010960;28;20692;-96
2021/08/07 13:03:22;;;;;;;2.10;1.73;;;19.90;99.90;;;;;;4999872;28;20688;-96
2021/08/07 13:06:04;;;;;;;2.50;1.97;;;19.80;99.90;;;;;;4997660;28;20653;-96
2021/08/07 13:08:33;;;;;;;2.97;2.67;;;19.60;99.90;;;;;;4996237;28;20661;-96
2021/08/07 13:11:15;;;;;;;2.00;1.80;;;19.60;99.90;;;;;;4981064;28;20669;-96
2021/08/07 13:13:44;;;;;;;3.57;2.40;;;19.60;99.90;;;;;;4997912;28;20669;-96
2021/08/07 13:16:12;;;;;;;3.17;2.13;;;19.50;99.90;;;;;;4996880;28;20717;-96
2021/08/07 13:18:45;;;;;;;3.10;2.80;;;19.60;99.90;;;;;;4978587;28;20653;-96
2021/08/07 13:21:27;;;;;;;3.77;1.80;;;19.50;99.90;;;;;;4996185;28;20602;-96
2021/08/07 13:23:59;;;;;;;4.63;2.50;;;19.50;99.90;;;;;;4995896;28;20703;-96
2021/08/07 13:26:48;;;;;;;2.33;1.70;;;19.30;99.90;;;;;;4996070;28;20696;-96
2021/08/07 13:29:20;;;;;;;2.80;1.93;;;19.30;99.90;;;;;;4956613;28;20658;-96
2021/08/07 13:31:49;;;;;;;5.37;2.30;;;19.10;99.90;;;;;;4978443;28;20680;-96
2021/08/07 13:34:38;;;;;;;2.80;2.03;;;19.00;99.90;;;;;;4979982;28;20696;-96
2021/08/07 13:39:50;;;;;;;3.10;2.57;;;18.90;99.90;;;;;;4991990;28;20626;-96
2021/08/07 13:45:01;;;;;;;2.60;1.60;;;18.60;99.90;;;;;;4987763;28;20616;-96
2021/08/07 13:47:29;;;;;;;2.60;2.33;;;18.50;99.90;;;;;;4986454;28;20658;-96
2021/08/07 13:50:00;;;;;;;2.20;2.00;;;18.30;99.90;;;;;;4978824;28;20629;-96
2021/08/07 13:52:28;;;;;;;1.93;1.70;;;18.20;99.90;;;;;;4985819;28;20656;-95
2021/08/07 13:55:04;;;;;;;2.97;2.20;;;18.10;99.90;;;;;;4991590;28;20661;-96
2021/08/07 14:01:06;;;;;;;2.53;1.90;;;17.90;99.90;;;;;;4988228;28;20670;-96
2021/08/07 14:03:46;;;;;;;1.60;1.50;;;17.80;99.90;;;;;;4992745;28;20625;-96
2021/08/07 14:20:44;;;;;;;3.03;2.83;;;17.20;99.90;;;;;;4993601;28;20658;-95
2021/08/07 14:23:14;;;;;;;4.80;3.53;;;17.20;99.90;;;;;;4997517;28;20579;-94
2021/08/07 14:25:43;;;;;;;7.60;5.83;;;17.10;99.90;;;;;;4996410;28;20613;-95
2021/08/07 14:28:24;;;;;;;6.43;5.20;;;17.10;99.90;;;;;;4995868;28;20653;-96
2021/08/07 14:33:37;;;;;;;2.10;1.80;;;17.10;99.90;;;;;;4983236;28;20696;-95
2021/08/07 14:38:57;;;;;;;2.63;1.97;;;17.00;99.90;;;;;;4985117;28;20629;-95
2021/08/07 14:41:39;;;;;;;1.97;1.83;;;16.90;99.90;;;;;;4992417;28;20646;-95
2021/08/07 14:46:58;;;;;;;2.40;2.10;;;16.90;99.90;;;;;;4993835;28;20626;-95
2021/08/07 14:49:25;;;;;;;2.10;1.90;;;16.90;99.90;;;;;;4977035;28;20657;-95
2021/08/07 14:52:14;;;;;;;4.37;2.33;;;16.90;99.90;;;;;;4994213;28;20626;-95
2021/08/07 15:02:55;;;;;;;4.27;2.27;;;16.70;99.90;;;;;;4976004;28;20641;-95
2021/08/07 15:18:59;;;;;;;3.07;2.40;;;16.70;99.90;;;;;;6067987;22;4382517;-95
2021/08/07 15:21:26;;;;;;;2.30;1.93;;;16.60;99.90;;;;;;6246622;23;20565;-94
2021/08/07 15:23:54;;;;;;;2.40;2.10;;;16.60;99.90;;;;;;6196805;23;20609;-95
2021/08/07 15:26:24;;;;;;;2.77;2.40;;;16.70;99.90;;;;;;6219473;23;20636;-94
2021/08/07 15:28:54;;;;;;;4.10;2.00;;;16.70;99.90;;;;;;6216727;23;20547;-95
2021/08/07 15:31:22;;;;;;;2.70;2.03;;;16.70;99.90;;;;;;6191377;23;20567;-94
2021/08/07 15:33:50;;;;;;;5.07;2.97;;;16.70;99.90;;;;;;6218972;23;20676;-96
2021/08/07 15:36:20;;;;;;;3.10;2.00;;;16.70;99.90;;;;;;6219595;23;20583;-96
2021/08/07 15:38:47;;;;;;;2.50;2.30;;;16.80;99.90;;;;;;6219036;23;20654;-95
2021/08/07 15:41:14;;;;;;;2.17;2.07;;;16.70;99.90;;;;;;6219811;23;20647;-96
2021/08/07 15:46:28;;;;;;;2.70;1.40;;;16.90;99.90;;;;;;6218887;23;20631;-96
2021/08/07 15:49:01;;;;;;;2.10;2.00;;;16.90;99.90;;;;;;6218645;23;20610;-96
2021/08/07 15:51:47;;;;;;;4.13;2.17;;;16.90;99.90;;;;;;6217340;23;20590;-95
2021/08/07 15:54:45;;;;;;;2.73;1.80;;;17.00;99.90;;;;;;6218885;23;20578;-95
2021/08/07 15:57:48;;;;;;;2.60;2.40;;;17.00;99.90;;;;;;6219871;23;20590;-96
2021/08/07 16:00:50;;;;;;;3.00;2.63;;;17.00;99.90;;;;;;6194495;23;20579;-96
2021/08/07 16:16:47;;;;;;;2.30;2.10;;;17.30;99.90;;;;;;6216888;23;21084;-96
2021/08/07 16:19:41;;;;;;;2.97;2.63;;;17.30;99.90;;;;;;6215144;23;20587;-96
2021/08/07 16:25:48;;;;;;;2.40;1.97;;;17.50;99.90;;;;;;6241724;23;20575;-96
2021/08/07 16:37:17;;;;;;;2.50;2.20;;;17.50;99.90;;;;;;6223057;23;20649;-96
2021/08/07 16:39:47;;;;;;;2.87;2.13;;;17.40;99.90;;;;;;6239227;23;20602;-96
2021/08/07 16:42:27;;;;;;;4.77;1.97;;;17.50;99.90;;;;;;6240591;23;20582;-96
2021/08/07 16:45:04;;;;;;;1.97;1.87;;;17.40;99.90;;;;;;6214901;23;20570;-96
2021/08/07 16:47:38;;;;;;;3.00;1.70;;;17.40;99.90;;;;;;6240307;23;20647;-96
2021/08/07 16:50:23;;;;;;;1.53;1.43;;;17.40;99.90;;;;;;6239487;23;20625;-96
2021/08/07 16:53:30;;;;;;;3.57;2.80;;;17.40;99.90;;;;;;6237521;23;20574;-95
2021/08/07 16:56:07;;;;;;;3.13;2.37;;;17.40;99.90;;;;;;6239438;23;20574;-96
2021/08/07 17:01:27;;;;;;;5.50;1.77;;;17.40;99.90;;;;;;6233456;23;20634;-95
2021/08/07 17:06:55;;;;;;;2.67;1.80;;;17.50;99.90;;;;;;6234778;23;20641;-95
2021/08/07 17:09:23;;;;;;;2.90;1.87;;;17.50;99.90;;;;;;6213001;23;20667;-96
2021/08/07 17:11:52;;;;;;;4.90;1.87;;;17.50;99.90;;;;;;6237244;23;20593;-96
2021/08/07 17:14:20;;;;;;;3.67;1.43;;;17.60;99.90;;;;;;6238054;23;20577;-96
2021/08/07 17:17:28;;;;;;;1.60;1.50;;;17.60;99.90;;;;;;6215863;23;20583;-96
2021/08/07 17:23:49;;;;;;;2.10;1.80;;;17.50;99.90;;;;;;6239918;23;20591;-96
2021/08/07 17:26:38;;;;;;;1.43;1.33;;;17.40;99.90;;;;;;6234650;23;20642;-96
2021/08/07 17:29:37;;;;;;;2.27;1.30;;;17.40;99.90;;;;;;6241450;23;20574;-96
2021/08/07 17:32:16;;;;;;;2.27;1.37;;;17.40;99.90;;;;;;6216272;23;20649;-96
2021/08/07 17:35:01;;;;;;;1.10;1.00;;;17.40;99.90;;;;;;6242710;23;20558;-95
2021/08/07 17:37:44;;;;;;;4.20;0.97;;;17.30;99.90;;;;;;6240879;23;20639;-95
2021/08/07 17:40:29;;;;;;;2.60;1.10;;;17.30;99.90;;;;;;6241092;23;20617;-96
2021/08/07 17:43:34;;;;;;;2.60;1.30;;;17.40;99.90;;;;;;6215182;23;20576;-95
2021/08/07 17:46:16;;;;;;;1.20;0.90;;;17.40;99.90;;;;;;6241043;23;20602;-96
2021/08/07 17:51:37;;;;;;;5.40;1.60;;;17.30;99.90;;;;;;6241375;23;20578;-96
2021/08/07 17:57:06;;;;;;;2.23;0.90;;;17.30;99.90;;;;;;6237467;23;20599;-96
2021/08/07 18:00:19;;;;;;;0.80;0.80;;;17.30;99.90;;;;;;6239933;23;20586;-96
2021/08/07 18:02:49;;;;;;;1.30;0.73;;;17.30;99.90;;;;;;6240174;23;20602;-96
2021/08/07 18:08:29;;;;;;;0.90;0.70;;;17.30;99.90;;;;;;6236802;23;20635;-96
2021/08/07 18:14:02;;;;;;;0.57;0.50;;;17.30;99.90;;;;;;6241644;23;20562;-96
2021/08/07 18:19:39;;;;;;;1.17;0.70;;;17.40;99.90;;;;;;6237529;23;20579;-96
2021/08/07 18:25:40;;;;;;;4.50;0.80;;;17.50;99.90;;;;;;6237896;23;20578;-96
2021/08/07 18:28:07;;;;;;;4.30;0.80;;;17.40;99.90;;;;;;6240073;23;20657;-96
2021/08/07 18:30:39;;;;;;;2.43;0.40;;;17.40;99.90;;;;;;6241498;23;20586;-96
2021/08/07 18:33:09;;;;;;;0.60;0.57;;;17.50;99.90;;;;;;6215311;23;20939;-95
2021/08/07 18:35:40;;;;;;;1.40;0.70;;;17.50;99.90;;;;;;6214844;23;20610;-96
2021/08/07 18:38:07;;;;;;;0.87;0.60;;;17.50;99.90;;;;;;6214911;23;20574;-96